sensor_id;sensor_type;location;lat;lon;timestamp;P1;durP1;ratioP1;P2;durP2;ratioP2
20721;SDS011;10522;52.198;9.890;2023-05-23T00:01:53;20.23;;;16.47;;
20721;SDS011;10522;52.198;9.890;2023-05-23T00:04:19;21.50;;;15.43;;
20721;SDS011;10522;52.198;9.890;2023-05-23T00:06:45;19.03;;;15.37;;
20721;SDS011;10522;52.198;9.890;2023-05-23T00:09:14;21.47;;;15.33;;
20721;SDS011;10522;52.198;9.890;2023-05-23T00:11:41;21.57;;;15.93;;
20721;SDS011;10522;52.198;9.890;2023-05-23T00:14:12;21.13;;;14.67;;
20721;SDS011;10522;52.198;9.890;2023-05-23T00:16:39;22.27;;;16.57;;
20721;SDS011;10522;52.198;9.890;2023-05-23T00:19:06;20.40;;;16.33;;
20721;SDS011;10522;52.198;9.890;2023-05-23T00:21:33;20.27;;;16.70;;
20721;SDS011;10522;52.198;9.890;2023-05-23T00:23:58;20.43;;;16.10;;
20721;SDS011;10522;52.198;9.890;2023-05-23T00:26:26;19.67;;;15.67;;
20721;SDS011;10522;52.198;9.890;2023-05-23T00:28:53;22.50;;;17.33;;
20721;SDS011;10522;52.198;9.890;2023-05-23T00:31:20;22.07;;;16.80;;
20721;SDS011;10522;52.198;9.890;2023-05-23T00:33:46;25.03;;;17.03;;
20721;SDS011;10522;52.198;9.890;2023-05-23T00:36:12;22.97;;;16.77;;
20721;SDS011;10522;52.198;9.890;2023-05-23T00:38:37;20.53;;;17.10;;
20721;SDS011;10522;52.198;9.890;2023-05-23T00:41:03;19.60;;;16.27;;
20721;SDS011;10522;52.198;9.890;2023-05-23T00:43:29;20.80;;;16.60;;
20721;SDS011;10522;52.198;9.890;2023-05-23T00:45:55;22.23;;;18.13;;
20721;SDS011;10522;52.198;9.890;2023-05-23T00:48:21;19.43;;;17.13;;
20721;SDS011;10522;52.198;9.890;2023-05-23T00:50:48;23.33;;;17.73;;
20721;SDS011;10522;52.198;9.890;2023-05-23T00:53:14;23.93;;;17.93;;
20721;SDS011;10522;52.198;9.890;2023-05-23T00:55:41;20.80;;;16.93;;
20721;SDS011;10522;52.198;9.890;2023-05-23T00:58:08;22.43;;;17.23;;
20721;SDS011;10522;52.198;9.890;2023-05-23T01:00:35;21.70;;;16.37;;
20721;SDS011;10522;52.198;9.890;2023-05-23T01:03:02;20.90;;;16.67;;
20721;SDS011;10522;52.198;9.890;2023-05-23T01:05:29;28.23;;;19.67;;
20721;SDS011;10522;52.198;9.890;2023-05-23T01:07:54;26.47;;;21.03;;
20721;SDS011;10522;52.198;9.890;2023-05-23T01:10:23;25.77;;;20.87;;
20721;SDS011;10522;52.198;9.890;2023-05-23T01:18:23;32.03;;;24.43;;
20721;SDS011;10522;52.198;9.890;2023-05-23T01:21:02;31.90;;;25.53;;
20721;SDS011;10522;52.198;9.890;2023-05-23T01:29:06;46.20;;;37.00;;
20721;SDS011;10522;52.198;9.890;2023-05-23T01:31:41;55.63;;;39.93;;
20721;SDS011;10522;52.198;9.890;2023-05-23T01:34:09;52.87;;;41.30;;
20721;SDS011;10522;52.198;9.890;2023-05-23T01:36:41;49.20;;;38.73;;
20721;SDS011;10522;52.198;9.890;2023-05-23T01:39:07;44.70;;;37.43;;
20721;SDS011;10522;52.198;9.890;2023-05-23T01:41:33;40.83;;;34.60;;
20721;SDS011;10522;52.198;9.890;2023-05-23T01:43:59;44.03;;;38.57;;
20721;SDS011;10522;52.198;9.890;2023-05-23T01:46:26;45.90;;;36.73;;
20721;SDS011;10522;52.198;9.890;2023-05-23T01:48:52;42.43;;;34.93;;
20721;SDS011;10522;52.198;9.890;2023-05-23T01:51:20;43.10;;;35.83;;
20721;SDS011;10522;52.198;9.890;2023-05-23T01:53:47;38.13;;;31.30;;
20721;SDS011;10522;52.198;9.890;2023-05-23T01:56:17;43.53;;;32.23;;
20721;SDS011;10522;52.198;9.890;2023-05-23T01:58:45;39.73;;;33.40;;
20721;SDS011;10522;52.198;9.890;2023-05-23T02:01:11;40.90;;;31.83;;
20721;SDS011;10522;52.198;9.890;2023-05-23T02:03:36;37.40;;;29.90;;
20721;SDS011;10522;52.198;9.890;2023-05-23T02:06:02;42.10;;;30.17;;
20721;SDS011;10522;52.198;9.890;2023-05-23T02:08:28;41.97;;;31.47;;
20721;SDS011;10522;52.198;9.890;2023-05-23T02:10:53;36.27;;;26.90;;
20721;SDS011;10522;52.198;9.890;2023-05-23T02:13:19;39.63;;;27.93;;
20721;SDS011;10522;52.198;9.890;2023-05-23T02:15:45;27.47;;;22.60;;
20721;SDS011;10522;52.198;9.890;2023-05-23T02:18:10;24.63;;;19.07;;
20721;SDS011;10522;52.198;9.890;2023-05-23T02:20:37;24.20;;;19.00;;
20721;SDS011;10522;52.198;9.890;2023-05-23T02:23:02;23.67;;;17.20;;
20721;SDS011;10522;52.198;9.890;2023-05-23T02:25:29;22.17;;;16.67;;
20721;SDS011;10522;52.198;9.890;2023-05-23T02:27:55;22.17;;;17.80;;
20721;SDS011;10522;52.198;9.890;2023-05-23T02:30:20;24.60;;;16.80;;
20721;SDS011;10522;52.198;9.890;2023-05-23T02:32:46;20.47;;;15.90;;
20721;SDS011;10522;52.198;9.890;2023-05-23T02:35:11;20.10;;;16.27;;
20721;SDS011;10522;52.198;9.890;2023-05-23T02:37:37;21.63;;;15.63;;
20721;SDS011;10522;52.198;9.890;2023-05-23T02:40:04;24.20;;;16.03;;
20721;SDS011;10522;52.198;9.890;2023-05-23T02:42:31;20.87;;;15.07;;
20721;SDS011;10522;52.198;9.890;2023-05-23T02:44:57;22.27;;;15.67;;
20721;SDS011;10522;52.198;9.890;2023-05-23T02:47:23;22.00;;;15.97;;
20721;SDS011;10522;52.198;9.890;2023-05-23T02:49:48;19.20;;;14.83;;
20721;SDS011;10522;52.198;9.890;2023-05-23T02:52:14;22.23;;;15.33;;
20721;SDS011;10522;52.198;9.890;2023-05-23T02:54:40;17.53;;;14.37;;
20721;SDS011;10522;52.198;9.890;2023-05-23T02:57:06;21.13;;;15.30;;
20721;SDS011;10522;52.198;9.890;2023-05-23T02:59:32;18.87;;;13.83;;
20721;SDS011;10522;52.198;9.890;2023-05-23T03:01:58;18.93;;;13.57;;
20721;SDS011;10522;52.198;9.890;2023-05-23T03:04:23;19.23;;;14.43;;
20721;SDS011;10522;52.198;9.890;2023-05-23T03:06:49;19.37;;;14.77;;
20721;SDS011;10522;52.198;9.890;2023-05-23T03:09:18;19.83;;;14.53;;
20721;SDS011;10522;52.198;9.890;2023-05-23T03:11:44;22.20;;;15.00;;
20721;SDS011;10522;52.198;9.890;2023-05-23T03:14:10;20.47;;;15.37;;
20721;SDS011;10522;52.198;9.890;2023-05-23T03:16:35;18.97;;;14.70;;
20721;SDS011;10522;52.198;9.890;2023-05-23T03:19:01;19.03;;;14.47;;
20721;SDS011;10522;52.198;9.890;2023-05-23T03:21:27;21.23;;;14.53;;
20721;SDS011;10522;52.198;9.890;2023-05-23T03:23:52;21.70;;;16.33;;
20721;SDS011;10522;52.198;9.890;2023-05-23T03:26:18;24.57;;;14.73;;
20721;SDS011;10522;52.198;9.890;2023-05-23T03:28:44;23.27;;;15.07;;
20721;SDS011;10522;52.198;9.890;2023-05-23T03:31:09;24.40;;;15.10;;
20721;SDS011;10522;52.198;9.890;2023-05-23T03:33:35;21.37;;;15.53;;
20721;SDS011;10522;52.198;9.890;2023-05-23T03:36:00;24.70;;;14.07;;
20721;SDS011;10522;52.198;9.890;2023-05-23T03:38:26;21.37;;;15.27;;
20721;SDS011;10522;52.198;9.890;2023-05-23T03:40:52;18.60;;;14.23;;
20721;SDS011;10522;52.198;9.890;2023-05-23T03:43:18;19.43;;;14.77;;
20721;SDS011;10522;52.198;9.890;2023-05-23T03:45:43;17.47;;;13.57;;
20721;SDS011;10522;52.198;9.890;2023-05-23T03:48:09;17.90;;;13.97;;
20721;SDS011;10522;52.198;9.890;2023-05-23T03:50:35;19.97;;;14.80;;
20721;SDS011;10522;52.198;9.890;2023-05-23T03:53:00;22.03;;;15.67;;
20721;SDS011;10522;52.198;9.890;2023-05-23T03:55:26;20.07;;;14.23;;
20721;SDS011;10522;52.198;9.890;2023-05-23T03:57:51;21.13;;;15.87;;
20721;SDS011;10522;52.198;9.890;2023-05-23T04:00:17;21.60;;;15.23;;
20721;SDS011;10522;52.198;9.890;2023-05-23T04:02:43;19.27;;;14.23;;
20721;SDS011;10522;52.198;9.890;2023-05-23T04:05:10;20.70;;;15.43;;
20721;SDS011;10522;52.198;9.890;2023-05-23T04:07:36;23.13;;;15.93;;
20721;SDS011;10522;52.198;9.890;2023-05-23T04:10:03;19.80;;;15.27;;
20721;SDS011;10522;52.198;9.890;2023-05-23T04:12:29;18.97;;;14.87;;
20721;SDS011;10522;52.198;9.890;2023-05-23T04:14:55;19.87;;;13.90;;
20721;SDS011;10522;52.198;9.890;2023-05-23T04:17:21;16.53;;;12.90;;
20721;SDS011;10522;52.198;9.890;2023-05-23T04:19:48;15.97;;;11.93;;
20721;SDS011;10522;52.198;9.890;2023-05-23T04:22:14;13.20;;;9.67;;
20721;SDS011;10522;52.198;9.890;2023-05-23T04:24:40;11.70;;;9.23;;
20721;SDS011;10522;52.198;9.890;2023-05-23T04:27:06;15.03;;;10.00;;
20721;SDS011;10522;52.198;9.890;2023-05-23T04:29:33;14.60;;;10.13;;
20721;SDS011;10522;52.198;9.890;2023-05-23T04:31:59;14.03;;;10.10;;
20721;SDS011;10522;52.198;9.890;2023-05-23T04:34:25;19.00;;;11.80;;
20721;SDS011;10522;52.198;9.890;2023-05-23T04:36:51;18.00;;;12.17;;
20721;SDS011;10522;52.198;9.890;2023-05-23T04:39:18;17.17;;;13.77;;
20721;SDS011;10522;52.198;9.890;2023-05-23T04:41:44;21.57;;;13.87;;
20721;SDS011;10522;52.198;9.890;2023-05-23T04:44:10;17.53;;;13.40;;
20721;SDS011;10522;52.198;9.890;2023-05-23T04:46:36;17.00;;;13.17;;
20721;SDS011;10522;52.198;9.890;2023-05-23T04:49:05;18.57;;;14.17;;
20721;SDS011;10522;52.198;9.890;2023-05-23T04:51:31;14.60;;;11.73;;
20721;SDS011;10522;52.198;9.890;2023-05-23T04:53:57;16.17;;;11.47;;
20721;SDS011;10522;52.198;9.890;2023-05-23T04:56:23;16.13;;;10.80;;
20721;SDS011;10522;52.198;9.890;2023-05-23T04:58:52;11.20;;;9.20;;
20721;SDS011;10522;52.198;9.890;2023-05-23T05:01:17;12.40;;;9.03;;
20721;SDS011;10522;52.198;9.890;2023-05-23T05:03:43;11.17;;;8.40;;
20721;SDS011;10522;52.198;9.890;2023-05-23T05:06:09;10.43;;;7.37;;
20721;SDS011;10522;52.198;9.890;2023-05-23T05:08:34;10.57;;;7.77;;
20721;SDS011;10522;52.198;9.890;2023-05-23T05:11:00;14.27;;;7.97;;
20721;SDS011;10522;52.198;9.890;2023-05-23T05:13:26;11.20;;;8.30;;
20721;SDS011;10522;52.198;9.890;2023-05-23T05:15:52;12.47;;;9.30;;
20721;SDS011;10522;52.198;9.890;2023-05-23T05:18:17;12.03;;;9.37;;
20721;SDS011;10522;52.198;9.890;2023-05-23T05:20:43;13.67;;;9.63;;
20721;SDS011;10522;52.198;9.890;2023-05-23T05:23:08;14.17;;;9.90;;
20721;SDS011;10522;52.198;9.890;2023-05-23T05:25:35;14.53;;;9.50;;
20721;SDS011;10522;52.198;9.890;2023-05-23T05:28:02;13.83;;;10.10;;
20721;SDS011;10522;52.198;9.890;2023-05-23T05:30:30;11.80;;;8.43;;
20721;SDS011;10522;52.198;9.890;2023-05-23T05:32:59;11.00;;;8.43;;
20721;SDS011;10522;52.198;9.890;2023-05-23T05:35:29;12.43;;;9.20;;
20721;SDS011;10522;52.198;9.890;2023-05-23T05:37:55;13.00;;;8.63;;
20721;SDS011;10522;52.198;9.890;2023-05-23T05:40:21;14.27;;;8.90;;
20721;SDS011;10522;52.198;9.890;2023-05-23T05:42:47;12.37;;;8.63;;
20721;SDS011;10522;52.198;9.890;2023-05-23T05:45:12;13.03;;;9.50;;
20721;SDS011;10522;52.198;9.890;2023-05-23T05:47:38;11.50;;;9.13;;
20721;SDS011;10522;52.198;9.890;2023-05-23T05:50:04;14.00;;;8.73;;
20721;SDS011;10522;52.198;9.890;2023-05-23T05:52:32;14.80;;;9.50;;
20721;SDS011;10522;52.198;9.890;2023-05-23T05:55:02;11.73;;;8.10;;
20721;SDS011;10522;52.198;9.890;2023-05-23T05:57:31;13.63;;;9.40;;
20721;SDS011;10522;52.198;9.890;2023-05-23T05:59:57;13.53;;;8.47;;
20721;SDS011;10522;52.198;9.890;2023-05-23T06:02:23;13.00;;;8.67;;
20721;SDS011;10522;52.198;9.890;2023-05-23T06:04:48;12.43;;;7.93;;
20721;SDS011;10522;52.198;9.890;2023-05-23T06:07:14;8.63;;;6.67;;
20721;SDS011;10522;52.198;9.890;2023-05-23T06:09:40;11.10;;;7.13;;
20721;SDS011;10522;52.198;9.890;2023-05-23T06:12:07;9.97;;;7.30;;
20721;SDS011;10522;52.198;9.890;2023-05-23T06:14:33;10.27;;;6.90;;
20721;SDS011;10522;52.198;9.890;2023-05-23T06:16:58;9.80;;;6.87;;
20721;SDS011;10522;52.198;9.890;2023-05-23T06:19:24;8.60;;;6.67;;
20721;SDS011;10522;52.198;9.890;2023-05-23T06:21:49;10.63;;;7.63;;
20721;SDS011;10522;52.198;9.890;2023-05-23T06:24:15;8.07;;;6.57;;
20721;SDS011;10522;52.198;9.890;2023-05-23T06:26:41;9.63;;;6.90;;
20721;SDS011;10522;52.198;9.890;2023-05-23T06:29:06;10.27;;;7.83;;
20721;SDS011;10522;52.198;9.890;2023-05-23T06:31:32;9.47;;;6.70;;
20721;SDS011;10522;52.198;9.890;2023-05-23T06:33:58;9.30;;;6.83;;
20721;SDS011;10522;52.198;9.890;2023-05-23T06:36:23;8.10;;;6.60;;
20721;SDS011;10522;52.198;9.890;2023-05-23T06:38:49;8.30;;;6.40;;
20721;SDS011;10522;52.198;9.890;2023-05-23T06:41:14;7.37;;;6.40;;
20721;SDS011;10522;52.198;9.890;2023-05-23T06:43:40;9.80;;;6.57;;
20721;SDS011;10522;52.198;9.890;2023-05-23T06:46:05;8.47;;;6.63;;
20721;SDS011;10522;52.198;9.890;2023-05-23T06:48:31;10.60;;;6.80;;
20721;SDS011;10522;52.198;9.890;2023-05-23T06:50:57;7.90;;;6.43;;
20721;SDS011;10522;52.198;9.890;2023-05-23T06:53:22;11.23;;;6.77;;
20721;SDS011;10522;52.198;9.890;2023-05-23T06:55:48;9.50;;;6.70;;
20721;SDS011;10522;52.198;9.890;2023-05-23T06:58:13;8.00;;;6.50;;
20721;SDS011;10522;52.198;9.890;2023-05-23T07:00:39;9.03;;;6.37;;
20721;SDS011;10522;52.198;9.890;2023-05-23T07:03:05;8.80;;;6.80;;
20721;SDS011;10522;52.198;9.890;2023-05-23T07:05:31;9.13;;;7.17;;
20721;SDS011;10522;52.198;9.890;2023-05-23T07:07:58;7.60;;;6.23;;
20721;SDS011;10522;52.198;9.890;2023-05-23T07:10:23;7.57;;;6.17;;
20721;SDS011;10522;52.198;9.890;2023-05-23T07:12:50;8.83;;;6.60;;
20721;SDS011;10522;52.198;9.890;2023-05-23T07:15:16;11.23;;;7.50;;
20721;SDS011;10522;52.198;9.890;2023-05-23T07:17:41;11.80;;;8.40;;
20721;SDS011;10522;52.198;9.890;2023-05-23T07:20:07;11.00;;;8.43;;
20721;SDS011;10522;52.198;9.890;2023-05-23T07:22:33;10.80;;;8.60;;
20721;SDS011;10522;52.198;9.890;2023-05-23T07:24:58;11.73;;;8.57;;
20721;SDS011;10522;52.198;9.890;2023-05-23T07:27:25;9.77;;;7.67;;
20721;SDS011;10522;52.198;9.890;2023-05-23T07:29:51;9.30;;;8.00;;
20721;SDS011;10522;52.198;9.890;2023-05-23T07:32:17;14.73;;;8.20;;
20721;SDS011;10522;52.198;9.890;2023-05-23T07:34:42;10.47;;;7.80;;
20721;SDS011;10522;52.198;9.890;2023-05-23T07:37:08;10.93;;;8.33;;
20721;SDS011;10522;52.198;9.890;2023-05-23T07:39:34;13.43;;;8.13;;
20721;SDS011;10522;52.198;9.890;2023-05-23T07:41:59;12.13;;;8.20;;
20721;SDS011;10522;52.198;9.890;2023-05-23T07:44:25;11.47;;;8.73;;
20721;SDS011;10522;52.198;9.890;2023-05-23T07:46:52;10.63;;;7.83;;
20721;SDS011;10522;52.198;9.890;2023-05-23T07:49:18;12.33;;;8.40;;
20721;SDS011;10522;52.198;9.890;2023-05-23T07:51:43;11.10;;;7.07;;
20721;SDS011;10522;52.198;9.890;2023-05-23T07:54:09;15.93;;;7.90;;
20721;SDS011;10522;52.198;9.890;2023-05-23T07:56:35;9.50;;;7.63;;
20721;SDS011;10522;52.198;9.890;2023-05-23T07:59:02;10.73;;;6.50;;
20721;SDS011;10522;52.198;9.890;2023-05-23T08:01:28;9.93;;;6.60;;
20721;SDS011;10522;52.198;9.890;2023-05-23T08:03:53;9.10;;;7.23;;
20721;SDS011;10522;52.198;9.890;2023-05-23T08:06:19;12.23;;;6.53;;
20721;SDS011;10522;52.198;9.890;2023-05-23T08:08:45;7.87;;;6.13;;
20721;SDS011;10522;52.198;9.890;2023-05-23T08:11:10;8.20;;;6.17;;
20721;SDS011;10522;52.198;9.890;2023-05-23T08:13:36;8.73;;;5.40;;
20721;SDS011;10522;52.198;9.890;2023-05-23T08:16:01;6.63;;;6.00;;
20721;SDS011;10522;52.198;9.890;2023-05-23T08:18:27;8.77;;;6.20;;
20721;SDS011;10522;52.198;9.890;2023-05-23T08:20:54;9.43;;;6.70;;
20721;SDS011;10522;52.198;9.890;2023-05-23T08:23:20;8.67;;;6.97;;
20721;SDS011;10522;52.198;9.890;2023-05-23T08:25:46;9.87;;;7.20;;
20721;SDS011;10522;52.198;9.890;2023-05-23T08:28:12;8.80;;;6.67;;
20721;SDS011;10522;52.198;9.890;2023-05-23T08:30:37;8.57;;;6.50;;
20721;SDS011;10522;52.198;9.890;2023-05-23T08:33:03;8.63;;;7.73;;
20721;SDS011;10522;52.198;9.890;2023-05-23T08:35:29;8.80;;;7.23;;
20721;SDS011;10522;52.198;9.890;2023-05-23T08:37:59;9.03;;;6.93;;
20721;SDS011;10522;52.198;9.890;2023-05-23T08:40:25;9.23;;;8.00;;
20721;SDS011;10522;52.198;9.890;2023-05-23T08:42:53;8.70;;;6.90;;
20721;SDS011;10522;52.198;9.890;2023-05-23T08:45:19;8.93;;;6.90;;
20721;SDS011;10522;52.198;9.890;2023-05-23T08:47:47;10.00;;;8.20;;
20721;SDS011;10522;52.198;9.890;2023-05-23T08:50:15;14.07;;;7.80;;
20721;SDS011;10522;52.198;9.890;2023-05-23T08:52:42;15.07;;;9.10;;
20721;SDS011;10522;52.198;9.890;2023-05-23T08:55:14;15.53;;;9.20;;
20721;SDS011;10522;52.198;9.890;2023-05-23T08:57:41;12.57;;;8.90;;
20721;SDS011;10522;52.198;9.890;2023-05-23T09:00:10;13.67;;;9.60;;
20721;SDS011;10522;52.198;9.890;2023-05-23T09:02:43;19.33;;;11.17;;
20721;SDS011;10522;52.198;9.890;2023-05-23T09:05:10;17.13;;;10.43;;
20721;SDS011;10522;52.198;9.890;2023-05-23T09:07:36;13.67;;;9.37;;
20721;SDS011;10522;52.198;9.890;2023-05-23T09:10:03;15.00;;;8.73;;
20721;SDS011;10522;52.198;9.890;2023-05-23T09:12:31;13.27;;;8.60;;
20721;SDS011;10522;52.198;9.890;2023-05-23T09:14:57;11.20;;;6.93;;
20721;SDS011;10522;52.198;9.890;2023-05-23T09:17:23;9.47;;;6.77;;
20721;SDS011;10522;52.198;9.890;2023-05-23T09:19:49;10.67;;;6.50;;
20721;SDS011;10522;52.198;9.890;2023-05-23T09:22:15;8.67;;;6.17;;
20721;SDS011;10522;52.198;9.890;2023-05-23T09:24:40;9.23;;;6.40;;
20721;SDS011;10522;52.198;9.890;2023-05-23T09:27:08;11.50;;;6.27;;
20721;SDS011;10522;52.198;9.890;2023-05-23T09:29:37;8.10;;;5.30;;
20721;SDS011;10522;52.198;9.890;2023-05-23T09:32:14;9.97;;;5.47;;
20721;SDS011;10522;52.198;9.890;2023-05-23T09:34:56;10.67;;;5.00;;
20721;SDS011;10522;52.198;9.890;2023-05-23T09:37:33;10.00;;;4.97;;
20721;SDS011;10522;52.198;9.890;2023-05-23T09:40:10;9.57;;;5.73;;
20721;SDS011;10522;52.198;9.890;2023-05-23T09:42:44;13.13;;;6.37;;
20721;SDS011;10522;52.198;9.890;2023-05-23T09:45:14;11.77;;;5.40;;
20721;SDS011;10522;52.198;9.890;2023-05-23T09:47:53;12.93;;;6.10;;
20721;SDS011;10522;52.198;9.890;2023-05-23T09:50:19;12.33;;;5.40;;
20721;SDS011;10522;52.198;9.890;2023-05-23T09:52:45;14.23;;;5.57;;
20721;SDS011;10522;52.198;9.890;2023-05-23T09:55:11;11.07;;;5.40;;
20721;SDS011;10522;52.198;9.890;2023-05-23T09:57:39;15.47;;;5.77;;
20721;SDS011;10522;52.198;9.890;2023-05-23T10:00:06;16.00;;;5.23;;
20721;SDS011;10522;52.198;9.890;2023-05-23T10:02:52;10.67;;;5.83;;
20721;SDS011;10522;52.198;9.890;2023-05-23T10:05:49;12.17;;;6.40;;
20721;SDS011;10522;52.198;9.890;2023-05-23T10:13:22;8.37;;;4.97;;
20721;SDS011;10522;52.198;9.890;2023-05-23T10:16:01;10.20;;;6.00;;
20721;SDS011;10522;52.198;9.890;2023-05-23T10:18:38;8.40;;;5.03;;
20721;SDS011;10522;52.198;9.890;2023-05-23T10:21:10;8.00;;;5.20;;
20721;SDS011;10522;52.198;9.890;2023-05-23T10:23:37;9.40;;;5.37;;
20721;SDS011;10522;52.198;9.890;2023-05-23T10:26:03;6.57;;;4.87;;
20721;SDS011;10522;52.198;9.890;2023-05-23T10:28:33;7.40;;;4.10;;
20721;SDS011;10522;52.198;9.890;2023-05-23T10:30:58;6.60;;;3.93;;
20721;SDS011;10522;52.198;9.890;2023-05-23T10:33:28;7.73;;;4.57;;
20721;SDS011;10522;52.198;9.890;2023-05-23T10:36:03;8.00;;;4.03;;
20721;SDS011;10522;52.198;9.890;2023-05-23T10:41:33;8.73;;;4.03;;
20721;SDS011;10522;52.198;9.890;2023-05-23T10:47:10;7.73;;;4.40;;
20721;SDS011;10522;52.198;9.890;2023-05-23T10:49:50;12.93;;;6.90;;
20721;SDS011;10522;52.198;9.890;2023-05-23T10:52:18;14.50;;;6.97;;
20721;SDS011;10522;52.198;9.890;2023-05-23T10:54:50;13.73;;;7.50;;
20721;SDS011;10522;52.198;9.890;2023-05-23T10:57:18;17.07;;;7.23;;
20721;SDS011;10522;52.198;9.890;2023-05-23T10:59:45;14.00;;;6.73;;
20721;SDS011;10522;52.198;9.890;2023-05-23T11:02:14;12.60;;;7.27;;
20721;SDS011;10522;52.198;9.890;2023-05-23T11:04:42;16.37;;;7.80;;
20721;SDS011;10522;52.198;9.890;2023-05-23T11:07:27;15.83;;;7.70;;
20721;SDS011;10522;52.198;9.890;2023-05-23T11:10:13;17.53;;;6.57;;
20721;SDS011;10522;52.198;9.890;2023-05-23T11:12:42;15.47;;;6.80;;
20721;SDS011;10522;52.198;9.890;2023-05-23T11:20:17;20.37;;;8.43;;
20721;SDS011;10522;52.198;9.890;2023-05-23T11:23:21;19.27;;;8.07;;
20721;SDS011;10522;52.198;9.890;2023-05-23T11:25:43;12.43;;;7.10;;
20721;SDS011;10522;52.198;9.890;2023-05-23T11:28:12;19.73;;;6.90;;
20721;SDS011;10522;52.198;9.890;2023-05-23T11:30:38;11.47;;;5.77;;
20721;SDS011;10522;52.198;9.890;2023-05-23T11:33:11;20.60;;;6.33;;
20721;SDS011;10522;52.198;9.890;2023-05-23T11:35:41;16.63;;;6.63;;
20721;SDS011;10522;52.198;9.890;2023-05-23T11:38:08;22.37;;;6.47;;
20721;SDS011;10522;52.198;9.890;2023-05-23T11:40:35;14.23;;;5.90;;
20721;SDS011;10522;52.198;9.890;2023-05-23T11:43:04;12.50;;;6.30;;
20721;SDS011;10522;52.198;9.890;2023-05-23T11:45:31;18.03;;;6.57;;
20721;SDS011;10522;52.198;9.890;2023-05-23T11:47:58;19.97;;;7.93;;
20721;SDS011;10522;52.198;9.890;2023-05-23T11:50:28;18.40;;;7.53;;
20721;SDS011;10522;52.198;9.890;2023-05-23T11:52:54;20.67;;;7.47;;
20721;SDS011;10522;52.198;9.890;2023-05-23T11:55:20;18.83;;;8.77;;
20721;SDS011;10522;52.198;9.890;2023-05-23T11:57:47;19.50;;;8.80;;
20721;SDS011;10522;52.198;9.890;2023-05-23T12:00:13;15.33;;;8.77;;
20721;SDS011;10522;52.198;9.890;2023-05-23T12:02:40;17.43;;;8.63;;
20721;SDS011;10522;52.198;9.890;2023-05-23T12:05:09;24.67;;;8.93;;
20721;SDS011;10522;52.198;9.890;2023-05-23T12:10:10;19.37;;;7.13;;
20721;SDS011;10522;52.198;9.890;2023-05-23T12:12:36;14.93;;;5.60;;
20721;SDS011;10522;52.198;9.890;2023-05-23T12:15:02;12.37;;;6.60;;
20721;SDS011;10522;52.198;9.890;2023-05-23T12:17:28;11.57;;;6.00;;
20721;SDS011;10522;52.198;9.890;2023-05-23T12:19:54;19.00;;;7.20;;
20721;SDS011;10522;52.198;9.890;2023-05-23T12:22:23;17.93;;;6.83;;
20721;SDS011;10522;52.198;9.890;2023-05-23T12:24:53;12.67;;;6.37;;
20721;SDS011;10522;52.198;9.890;2023-05-23T12:27:25;23.63;;;7.43;;
20721;SDS011;10522;52.198;9.890;2023-05-23T12:29:54;15.27;;;7.83;;
20721;SDS011;10522;52.198;9.890;2023-05-23T12:32:33;17.93;;;7.93;;
20721;SDS011;10522;52.198;9.890;2023-05-23T12:35:02;21.07;;;7.77;;
20721;SDS011;10522;52.198;9.890;2023-05-23T12:37:28;14.30;;;7.90;;
20721;SDS011;10522;52.198;9.890;2023-05-23T12:39:54;19.73;;;7.90;;
20721;SDS011;10522;52.198;9.890;2023-05-23T12:42:20;21.37;;;7.90;;
20721;SDS011;10522;52.198;9.890;2023-05-23T12:44:48;20.57;;;8.13;;
20721;SDS011;10522;52.198;9.890;2023-05-23T12:47:15;21.47;;;8.03;;
20721;SDS011;10522;52.198;9.890;2023-05-23T12:49:41;16.30;;;6.80;;
20721;SDS011;10522;52.198;9.890;2023-05-23T12:52:08;19.67;;;5.40;;
20721;SDS011;10522;52.198;9.890;2023-05-23T12:54:34;15.07;;;5.50;;
20721;SDS011;10522;52.198;9.890;2023-05-23T12:57:00;18.70;;;5.37;;
20721;SDS011;10522;52.198;9.890;2023-05-23T12:59:26;21.23;;;5.73;;
20721;SDS011;10522;52.198;9.890;2023-05-23T13:01:51;14.70;;;5.23;;
20721;SDS011;10522;52.198;9.890;2023-05-23T13:04:17;20.53;;;6.17;;
20721;SDS011;10522;52.198;9.890;2023-05-23T13:06:42;15.17;;;5.87;;
20721;SDS011;10522;52.198;9.890;2023-05-23T13:09:08;16.90;;;6.03;;
20721;SDS011;10522;52.198;9.890;2023-05-23T13:11:34;19.20;;;6.93;;
20721;SDS011;10522;52.198;9.890;2023-05-23T13:13:59;16.77;;;6.90;;
20721;SDS011;10522;52.198;9.890;2023-05-23T13:16:25;20.27;;;6.37;;
20721;SDS011;10522;52.198;9.890;2023-05-23T13:18:51;15.37;;;6.00;;
20721;SDS011;10522;52.198;9.890;2023-05-23T13:21:16;17.17;;;7.17;;
20721;SDS011;10522;52.198;9.890;2023-05-23T13:23:42;15.07;;;7.07;;
20721;SDS011;10522;52.198;9.890;2023-05-23T13:26:08;17.33;;;5.77;;
20721;SDS011;10522;52.198;9.890;2023-05-23T13:28:33;21.73;;;5.80;;
20721;SDS011;10522;52.198;9.890;2023-05-23T13:30:59;18.33;;;5.30;;
20721;SDS011;10522;52.198;9.890;2023-05-23T13:33:25;15.43;;;4.33;;
20721;SDS011;10522;52.198;9.890;2023-05-23T13:35:51;17.40;;;5.43;;
20721;SDS011;10522;52.198;9.890;2023-05-23T13:38:18;16.93;;;5.57;;
20721;SDS011;10522;52.198;9.890;2023-05-23T13:40:44;19.13;;;5.27;;
20721;SDS011;10522;52.198;9.890;2023-05-23T13:43:09;14.90;;;5.33;;
20721;SDS011;10522;52.198;9.890;2023-05-23T13:45:35;14.13;;;5.27;;
20721;SDS011;10522;52.198;9.890;2023-05-23T13:48:01;12.97;;;4.53;;
20721;SDS011;10522;52.198;9.890;2023-05-23T13:50:26;20.30;;;5.70;;
20721;SDS011;10522;52.198;9.890;2023-05-23T13:52:52;20.67;;;6.50;;
20721;SDS011;10522;52.198;9.890;2023-05-23T13:55:18;15.63;;;5.93;;
20721;SDS011;10522;52.198;9.890;2023-05-23T13:57:43;16.57;;;5.27;;
20721;SDS011;10522;52.198;9.890;2023-05-23T14:00:09;13.30;;;4.27;;
20721;SDS011;10522;52.198;9.890;2023-05-23T14:02:36;12.43;;;4.57;;
20721;SDS011;10522;52.198;9.890;2023-05-23T14:05:01;14.13;;;5.07;;
20721;SDS011;10522;52.198;9.890;2023-05-23T14:07:28;15.47;;;5.60;;
20721;SDS011;10522;52.198;9.890;2023-05-23T14:09:53;12.53;;;5.93;;
20721;SDS011;10522;52.198;9.890;2023-05-23T14:12:19;24.50;;;7.50;;
20721;SDS011;10522;52.198;9.890;2023-05-23T14:14:45;14.23;;;6.77;;
20721;SDS011;10522;52.198;9.890;2023-05-23T14:17:14;21.27;;;9.07;;
20721;SDS011;10522;52.198;9.890;2023-05-23T14:19:40;22.10;;;9.17;;
20721;SDS011;10522;52.198;9.890;2023-05-23T14:22:06;18.20;;;8.13;;
20721;SDS011;10522;52.198;9.890;2023-05-23T14:24:32;16.93;;;6.83;;
20721;SDS011;10522;52.198;9.890;2023-05-23T14:26:57;14.80;;;6.37;;
20721;SDS011;10522;52.198;9.890;2023-05-23T14:29:23;15.17;;;7.07;;
20721;SDS011;10522;52.198;9.890;2023-05-23T14:31:49;16.83;;;6.30;;
20721;SDS011;10522;52.198;9.890;2023-05-23T14:34:14;17.03;;;6.97;;
20721;SDS011;10522;52.198;9.890;2023-05-23T14:36:40;49.70;;;15.23;;
20721;SDS011;10522;52.198;9.890;2023-05-23T14:39:06;16.67;;;5.50;;
20721;SDS011;10522;52.198;9.890;2023-05-23T14:41:34;13.57;;;4.93;;
20721;SDS011;10522;52.198;9.890;2023-05-23T14:44:00;18.87;;;5.37;;
20721;SDS011;10522;52.198;9.890;2023-05-23T14:46:27;17.47;;;5.20;;
20721;SDS011;10522;52.198;9.890;2023-05-23T14:48:52;14.03;;;5.10;;
20721;SDS011;10522;52.198;9.890;2023-05-23T14:51:18;12.40;;;4.53;;
20721;SDS011;10522;52.198;9.890;2023-05-23T14:53:44;16.17;;;4.67;;
20721;SDS011;10522;52.198;9.890;2023-05-23T14:56:09;13.67;;;4.10;;
20721;SDS011;10522;52.198;9.890;2023-05-23T14:58:35;18.93;;;4.87;;
20721;SDS011;10522;52.198;9.890;2023-05-23T15:01:01;14.47;;;5.27;;
20721;SDS011;10522;52.198;9.890;2023-05-23T15:03:27;11.60;;;4.30;;